Bradley Intl Information

FAA: BDL - ICAO: KBDL

Bradley Intl (Airport) Location

State Connecticut
County Hartford
City Windsor Locks
Bradley Intl (Airport) is 3 miles west of Windsor Locks, CT.
Latitude 41-56-20.9000N
Longitude 072-41-00.1000W
Elevation 173ft

Bradley Intl METARs

METAR KBDL 182251Z 30008KT 10SM FEW045 SCT055 BKN075 08/06 A2985 RMK AO2 RAB13E33 SLP108 P0000 T00830061
Altimeter 29.85"
Temperature 8.3°C (46.9°F)
Wind 300° at 8KT
Clouds few at 4,500ft scattered at 5,500ft broken at 7,500ft
Visibility 10.0mi
Time observed: 2021-10-18T22:51:00Z

Bradley Intl (Airport) Details

Status Operational
Activation July 1942
Ownership Public
Usage Public
Chart NEW YORK
ATC on-site Yes
Beacon schedule sunset-sunrise
Beacon color clear green

Bradley Intl (Airport) Contacts

Owner CONNECTICUT AIRPORT AUTHORITY
Owner address AIRPORT ADMINISTRATION OFFICE, TERMINAL A, 3RD FLOOR, WINDSOR LOCKS, CT 06096-1022
Owner phone 860-594-2530
Manager KEITH J. NASIN
Manager address NORTH WINDHAM ROAD, WILLIMANTIC, CT 06226
Manager phone 203-423-1831

Bradley Intl Radio Frequencies

Bradley Intl (Airport) Radio Frequencies

UNICOM 122.95
Common traffic advisory frequency (CTAF) N/A